sensor_id;sensor_type;location;lat;lon;timestamp;pressure;altitude;pressure_sealevel;temperature;humidity
70343;BME280;57767;42.068;24.752;2022-07-23T00:00:09;98995.75;;;24.83;39.57
70343;BME280;57767;42.068;24.752;2022-07-23T00:01:11;98990.47;;;24.78;39.65
70343;BME280;57767;42.068;24.752;2022-07-23T00:02:13;98988.78;;;24.82;39.52
70343;BME280;57767;42.068;24.752;2022-07-23T00:03:15;98983.53;;;24.72;40.27
70343;BME280;57767;42.068;24.752;2022-07-23T00:04:16;99000.97;;;24.79;40.50
70343;BME280;57767;42.068;24.752;2022-07-23T00:05:18;98990.47;;;24.78;41.75
70343;BME280;57767;42.068;24.752;2022-07-23T00:06:20;98974.16;;;24.69;40.49
70343;BME280;57767;42.068;24.752;2022-07-23T00:07:22;98978.94;;;24.72;40.53
70343;BME280;57767;42.068;24.752;2022-07-23T00:08:24;98991.78;;;24.80;41.68
70343;BME280;57767;42.068;24.752;2022-07-23T00:09:26;98986.16;;;24.77;41.92
70343;BME280;57767;42.068;24.752;2022-07-23T00:10:30;99003.47;;;24.76;41.27
70343;BME280;57767;42.068;24.752;2022-07-23T00:11:31;98989.56;;;24.69;41.50
70343;BME280;57767;42.068;24.752;2022-07-23T00:12:33;98994.56;;;24.75;40.98
70343;BME280;57767;42.068;24.752;2022-07-23T00:13:35;98994.06;;;24.73;41.06
70343;BME280;57767;42.068;24.752;2022-07-23T00:14:37;98996.47;;;24.75;41.83
70343;BME280;57767;42.068;24.752;2022-07-23T00:15:39;98994.34;;;24.72;42.30
70343;BME280;57767;42.068;24.752;2022-07-23T00:16:40;98994.63;;;24.70;41.80
70343;BME280;57767;42.068;24.752;2022-07-23T00:17:42;98990.84;;;24.71;42.14
70343;BME280;57767;42.068;24.752;2022-07-23T00:18:44;98992.72;;;24.71;41.93
70343;BME280;57767;42.068;24.752;2022-07-23T00:19:46;98994.63;;;24.70;42.24
70343;BME280;57767;42.068;24.752;2022-07-23T00:20:48;98979.63;;;24.64;42.24
70343;BME280;57767;42.068;24.752;2022-07-23T00:21:50;98992.72;;;24.71;41.91
70343;BME280;57767;42.068;24.752;2022-07-23T00:22:53;98995.44;;;24.71;42.63
70343;BME280;57767;42.068;24.752;2022-07-23T00:23:55;98968.22;;;24.53;42.31
70343;BME280;57767;42.068;24.752;2022-07-23T00:24:57;99000.53;;;24.72;42.47
70343;BME280;57767;42.068;24.752;2022-07-23T00:26:19;98998.13;;;24.71;42.65
70343;BME280;57767;42.068;24.752;2022-07-23T00:27:20;98989.13;;;24.61;43.12
70343;BME280;57767;42.068;24.752;2022-07-23T00:28:22;99006.34;;;24.66;43.56
70343;BME280;57767;42.068;24.752;2022-07-23T00:29:24;99000.44;;;24.63;43.51
70343;BME280;57767;42.068;24.752;2022-07-23T00:30:26;98998.81;;;24.62;43.89
70343;BME280;57767;42.068;24.752;2022-07-23T00:31:28;99002.34;;;24.63;44.41
70343;BME280;57767;42.068;24.752;2022-07-23T00:32:30;98992.84;;;24.66;42.84
70343;BME280;57767;42.068;24.752;2022-07-23T00:33:51;99002.03;;;24.64;41.74
70343;BME280;57767;42.068;24.752;2022-07-23T00:34:58;98999.41;;;24.59;41.51
70343;BME280;57767;42.068;24.752;2022-07-23T00:35:59;98999.13;;;24.61;40.97
70343;BME280;57767;42.068;24.752;2022-07-23T00:37:01;98990.22;;;24.60;40.71
70343;BME280;57767;42.068;24.752;2022-07-23T00:38:04;98983.63;;;24.53;40.77
70343;BME280;57767;42.068;24.752;2022-07-23T00:39:06;98998.91;;;24.57;40.39
70343;BME280;57767;42.068;24.752;2022-07-23T00:40:08;98986.59;;;24.51;40.76
70343;BME280;57767;42.068;24.752;2022-07-23T00:41:10;99004.63;;;24.56;40.91
70343;BME280;57767;42.068;24.752;2022-07-23T00:42:12;98983.50;;;24.44;40.76
70343;BME280;57767;42.068;24.752;2022-07-23T00:43:14;99003.03;;;24.55;41.09
70343;BME280;57767;42.068;24.752;2022-07-23T00:44:21;99005.72;;;24.55;41.14
70343;BME280;57767;42.068;24.752;2022-07-23T00:45:23;98999.50;;;24.54;41.51
70343;BME280;57767;42.068;24.752;2022-07-23T00:46:25;98995.50;;;24.52;41.27
70343;BME280;57767;42.068;24.752;2022-07-23T00:47:26;98999.81;;;24.53;41.19
70343;BME280;57767;42.068;24.752;2022-07-23T00:48:28;99001.72;;;24.52;40.86
70343;BME280;57767;42.068;24.752;2022-07-23T00:49:30;98997.69;;;24.50;41.23
70343;BME280;57767;42.068;24.752;2022-07-23T00:50:32;99000.69;;;24.48;40.93
70343;BME280;57767;42.068;24.752;2022-07-23T00:51:34;98971.84;;;24.30;41.20
70343;BME280;57767;42.068;24.752;2022-07-23T00:52:37;99003.97;;;24.45;41.11
70343;BME280;57767;42.068;24.752;2022-07-23T00:53:39;98997.06;;;24.39;41.29
70343;BME280;57767;42.068;24.752;2022-07-23T00:54:41;99002.97;;;24.41;41.21
70343;BME280;57767;42.068;24.752;2022-07-23T00:55:43;99009.97;;;24.42;41.10
70343;BME280;57767;42.068;24.752;2022-07-23T00:56:45;99001.38;;;24.40;41.18
70343;BME280;57767;42.068;24.752;2022-07-23T00:57:48;98993.91;;;24.32;41.33
70343;BME280;57767;42.068;24.752;2022-07-23T00:58:50;98999.25;;;24.37;41.06
70343;BME280;57767;42.068;24.752;2022-07-23T00:59:52;98995.63;;;24.28;41.03
70343;BME280;57767;42.068;24.752;2022-07-23T01:00:53;98999.03;;;24.34;41.45
70343;BME280;57767;42.068;24.752;2022-07-23T01:01:55;98989.19;;;24.24;41.10
70343;BME280;57767;42.068;24.752;2022-07-23T01:02:57;99001.03;;;24.28;41.54
70343;BME280;57767;42.068;24.752;2022-07-23T01:03:59;98995.41;;;24.24;41.23
70343;BME280;57767;42.068;24.752;2022-07-23T01:05:01;98991.91;;;24.24;41.64
70343;BME280;57767;42.068;24.752;2022-07-23T01:06:03;98995.44;;;24.19;41.92
70343;BME280;57767;42.068;24.752;2022-07-23T01:07:05;99001.16;;;24.18;41.67
70343;BME280;57767;42.068;24.752;2022-07-23T01:08:08;98998.13;;;24.19;41.57
70343;BME280;57767;42.068;24.752;2022-07-23T01:09:10;99004.03;;;24.21;41.39
70343;BME280;57767;42.068;24.752;2022-07-23T01:10:11;98998.75;;;24.16;42.22
70343;BME280;57767;42.068;24.752;2022-07-23T01:11:34;98986.19;;;24.07;42.08
70343;BME280;57767;42.068;24.752;2022-07-23T01:12:36;99004.13;;;24.16;41.67
70343;BME280;57767;42.068;24.752;2022-07-23T01:13:42;99003.06;;;24.17;41.66
70343;BME280;57767;42.068;24.752;2022-07-23T01:14:44;99002.53;;;24.15;41.99
70343;BME280;57767;42.068;24.752;2022-07-23T01:15:46;99002.53;;;24.15;41.80
70343;BME280;57767;42.068;24.752;2022-07-23T01:16:48;99008.72;;;24.16;41.46
70343;BME280;57767;42.068;24.752;2022-07-23T01:17:51;99008.50;;;24.12;42.60
70343;BME280;57767;42.068;24.752;2022-07-23T01:18:52;99002.88;;;24.09;42.12
70343;BME280;57767;42.068;24.752;2022-07-23T01:19:54;98988.13;;;24.06;42.49
70343;BME280;57767;42.068;24.752;2022-07-23T01:20:56;99001.22;;;24.13;41.67
70343;BME280;57767;42.068;24.752;2022-07-23T01:22:01;99006.09;;;24.11;41.44
70343;BME280;57767;42.068;24.752;2022-07-23T01:23:03;99001.22;;;24.13;41.78
70343;BME280;57767;42.068;24.752;2022-07-23T01:24:06;99002.03;;;24.13;41.77
70343;BME280;57767;42.068;24.752;2022-07-23T01:25:08;99006.31;;;24.14;41.48
70343;BME280;57767;42.068;24.752;2022-07-23T01:26:10;98997.44;;;24.14;41.57
70343;BME280;57767;42.068;24.752;2022-07-23T01:27:12;99005.53;;;24.14;44.03
70343;BME280;57767;42.068;24.752;2022-07-23T01:28:14;98999.63;;;24.12;43.46
70343;BME280;57767;42.068;24.752;2022-07-23T01:29:16;98998.53;;;24.13;41.99
70343;BME280;57767;42.068;24.752;2022-07-23T01:30:19;98996.13;;;24.11;41.57
70343;BME280;57767;42.068;24.752;2022-07-23T01:31:21;98996.91;;;24.12;41.79
70343;BME280;57767;42.068;24.752;2022-07-23T01:32:29;98988.69;;;24.03;41.94
70343;BME280;57767;42.068;24.752;2022-07-23T01:33:31;98996.91;;;24.12;41.47
70343;BME280;57767;42.068;24.752;2022-07-23T01:34:33;99001.78;;;24.10;41.90
70343;BME280;57767;42.068;24.752;2022-07-23T01:35:35;98996.69;;;24.08;42.73
70343;BME280;57767;42.068;24.752;2022-07-23T01:36:37;99007.19;;;24.10;43.42
70343;BME280;57767;42.068;24.752;2022-07-23T01:37:39;98985.47;;;24.01;42.81
70343;BME280;57767;42.068;24.752;2022-07-23T01:38:40;99005.06;;;24.07;42.90
70343;BME280;57767;42.068;24.752;2022-07-23T01:39:42;99010.47;;;24.07;42.83
70343;BME280;57767;42.068;24.752;2022-07-23T01:40:44;99013.16;;;24.07;43.69
70343;BME280;57767;42.068;24.752;2022-07-23T01:41:47;99006.53;;;23.99;44.38
70343;BME280;57767;42.068;24.752;2022-07-23T01:42:51;99010.41;;;23.93;44.42
70343;BME280;57767;42.068;24.752;2022-07-23T01:43:54;99010.41;;;23.93;43.16
70343;BME280;57767;42.068;24.752;2022-07-23T01:44:56;99011.22;;;23.93;44.14
70343;BME280;57767;42.068;24.752;2022-07-23T01:45:58;99006.91;;;23.92;44.28
70343;BME280;57767;42.068;24.752;2022-07-23T01:47:00;99013.41;;;23.91;44.20
70343;BME280;57767;42.068;24.752;2022-07-23T01:48:02;99008.81;;;23.92;44.71
70343;BME280;57767;42.068;24.752;2022-07-23T01:49:10;99003.47;;;23.87;44.72
70343;BME280;57767;42.068;24.752;2022-07-23T01:50:12;99010.19;;;23.89;43.95
70343;BME280;57767;42.068;24.752;2022-07-23T01:51:14;99001.81;;;23.91;44.99
70343;BME280;57767;42.068;24.752;2022-07-23T01:52:16;99008.00;;;23.91;45.22
70343;BME280;57767;42.068;24.752;2022-07-23T01:53:18;99008.00;;;23.91;42.88
70343;BME280;57767;42.068;24.752;2022-07-23T01:54:20;99003.44;;;23.92;42.73
70343;BME280;57767;42.068;24.752;2022-07-23T01:55:21;99001.53;;;23.92;43.07
70343;BME280;57767;42.068;24.752;2022-07-23T01:56:23;99003.91;;;23.94;43.25
70343;BME280;57767;42.068;24.752;2022-07-23T01:57:25;98999.19;;;23.86;44.30
70343;BME280;57767;42.068;24.752;2022-07-23T01:58:27;99000.22;;;23.90;44.43
70343;BME280;57767;42.068;24.752;2022-07-23T01:59:29;99009.16;;;23.85;45.56
70343;BME280;57767;42.068;24.752;2022-07-23T02:00:31;99006.59;;;23.75;45.13
70343;BME280;57767;42.068;24.752;2022-07-23T02:01:33;99010.91;;;23.76;44.77
70343;BME280;57767;42.068;24.752;2022-07-23T02:02:35;99005.28;;;23.73;43.25
70343;BME280;57767;42.068;24.752;2022-07-23T02:03:37;98981.22;;;23.57;43.49
70343;BME280;57767;42.068;24.752;2022-07-23T02:04:39;98989.03;;;23.59;43.61
70343;BME280;57767;42.068;24.752;2022-07-23T02:05:40;98987.88;;;23.65;43.96
70343;BME280;57767;42.068;24.752;2022-07-23T02:06:42;98995.44;;;23.63;43.48
70343;BME280;57767;42.068;24.752;2022-07-23T02:07:44;99004.06;;;23.65;43.39
70343;BME280;57767;42.068;24.752;2022-07-23T02:08:45;99006.22;;;23.63;43.81
70343;BME280;57767;42.068;24.752;2022-07-23T02:09:47;99004.34;;;23.64;43.62
70343;BME280;57767;42.068;24.752;2022-07-23T02:10:49;98995.31;;;23.54;43.75
70343;BME280;57767;42.068;24.752;2022-07-23T02:11:52;98992.63;;;23.49;43.48
70343;BME280;57767;42.068;24.752;2022-07-23T02:12:54;99008.47;;;23.56;43.39
70343;BME280;57767;42.068;24.752;2022-07-23T02:13:56;99013.84;;;23.56;43.73
70343;BME280;57767;42.068;24.752;2022-07-23T02:14:58;99005.75;;;23.56;43.00
70343;BME280;57767;42.068;24.752;2022-07-23T02:15:59;99011.75;;;23.53;43.44
70343;BME280;57767;42.068;24.752;2022-07-23T02:17:01;99006.38;;;23.53;44.82
70343;BME280;57767;42.068;24.752;2022-07-23T02:18:03;99007.16;;;23.53;43.78
70343;BME280;57767;42.068;24.752;2022-07-23T02:19:05;99007.38;;;23.57;41.86
70343;BME280;57767;42.068;24.752;2022-07-23T02:20:10;99008.97;;;23.58;41.45
70343;BME280;57767;42.068;24.752;2022-07-23T02:21:12;99004.38;;;23.58;40.86
70343;BME280;57767;42.068;24.752;2022-07-23T02:22:14;99003.59;;;23.58;41.07
70343;BME280;57767;42.068;24.752;2022-07-23T02:23:16;99008.97;;;23.58;41.10
70343;BME280;57767;42.068;24.752;2022-07-23T02:24:17;99011.38;;;23.60;40.81
70343;BME280;57767;42.068;24.752;2022-07-23T02:25:19;98997.19;;;23.54;42.12
70343;BME280;57767;42.068;24.752;2022-07-23T02:26:21;99012.75;;;23.57;42.51
70343;BME280;57767;42.068;24.752;2022-07-23T02:27:23;99007.97;;;23.54;42.86
70343;BME280;57767;42.068;24.752;2022-07-23T02:28:25;99002.16;;;23.42;42.96
70343;BME280;57767;42.068;24.752;2022-07-23T02:29:26;99004.34;;;23.40;43.02
70343;BME280;57767;42.068;24.752;2022-07-23T02:30:28;99004.63;;;23.38;43.70
70343;BME280;57767;42.068;24.752;2022-07-23T02:31:31;98992.94;;;23.24;43.33
70343;BME280;57767;42.068;24.752;2022-07-23T02:32:33;99001.53;;;23.26;43.85
70343;BME280;57767;42.068;24.752;2022-07-23T02:33:35;98995.91;;;23.22;43.84
70343;BME280;57767;42.068;24.752;2022-07-23T02:34:37;99006.25;;;23.15;44.22
70343;BME280;57767;42.068;24.752;2022-07-23T02:35:39;98995.56;;;23.05;44.14
70343;BME280;57767;42.068;24.752;2022-07-23T02:36:41;99004.16;;;23.07;43.13
70343;BME280;57767;42.068;24.752;2022-07-23T02:37:42;99006.84;;;23.07;44.03
70343;BME280;57767;42.068;24.752;2022-07-23T02:38:44;99000.44;;;23.03;43.73
70343;BME280;57767;42.068;24.752;2022-07-23T02:39:46;99009.53;;;23.07;43.50
70343;BME280;57767;42.068;24.752;2022-07-23T02:40:49;99005.75;;;23.08;44.06
70343;BME280;57767;42.068;24.752;2022-07-23T02:41:51;98987.06;;;22.93;43.60
70343;BME280;57767;42.068;24.752;2022-07-23T02:42:53;99009.31;;;23.04;44.84
70343;BME280;57767;42.068;24.752;2022-07-23T02:43:54;99004.22;;;23.02;43.98
70343;BME280;57767;42.068;24.752;2022-07-23T02:44:56;99006.91;;;23.02;44.44
70343;BME280;57767;42.068;24.752;2022-07-23T02:45:58;99010.69;;;23.01;44.99
70343;BME280;57767;42.068;24.752;2022-07-23T02:47:00;99006.72;;;22.94;45.22
70343;BME280;57767;42.068;24.752;2022-07-23T02:48:02;99010.00;;;22.91;45.26
70343;BME280;57767;42.068;24.752;2022-07-23T02:49:04;99008.16;;;22.86;45.55
70343;BME280;57767;42.068;24.752;2022-07-23T02:50:07;99008.94;;;22.86;46.19
70343;BME280;57767;42.068;24.752;2022-07-23T02:51:09;99011.13;;;22.84;46.35
70343;BME280;57767;42.068;24.752;2022-07-23T02:52:15;99008.25;;;22.71;45.90
70343;BME280;57767;42.068;24.752;2022-07-23T02:53:17;99011.00;;;22.66;45.52
70343;BME280;57767;42.068;24.752;2022-07-23T02:54:19;99012.31;;;22.68;46.49
70343;BME280;57767;42.068;24.752;2022-07-23T02:55:21;99008.88;;;22.63;46.93
70343;BME280;57767;42.068;24.752;2022-07-23T02:56:22;99000.03;;;22.57;46.45
70343;BME280;57767;42.068;24.752;2022-07-23T02:57:24;99004.56;;;22.62;46.80
70343;BME280;57767;42.068;24.752;2022-07-23T02:58:26;99009.16;;;22.61;45.67
70343;BME280;57767;42.068;24.752;2022-07-23T02:59:28;99016.44;;;22.61;47.43
70343;BME280;57767;42.068;24.752;2022-07-23T03:00:30;99017.59;;;22.49;46.98
70343;BME280;57767;42.068;24.752;2022-07-23T03:01:31;99008.47;;;22.45;46.88
70343;BME280;57767;42.068;24.752;2022-07-23T03:02:33;99014.41;;;22.42;47.64
70343;BME280;57767;42.068;24.752;2022-07-23T03:03:35;99013.13;;;22.35;48.52
70343;BME280;57767;42.068;24.752;2022-07-23T03:04:37;99016.34;;;22.37;48.28
70343;BME280;57767;42.068;24.752;2022-07-23T03:05:38;99017.69;;;22.39;49.10
70343;BME280;57767;42.068;24.752;2022-07-23T03:06:40;99015.00;;;22.39;48.91
70343;BME280;57767;42.068;24.752;2022-07-23T03:07:42;99017.41;;;22.41;49.16
70343;BME280;57767;42.068;24.752;2022-07-23T03:08:44;99016.28;;;22.42;49.12
70343;BME280;57767;42.068;24.752;2022-07-23T03:09:48;99013.94;;;22.35;49.02
70343;BME280;57767;42.068;24.752;2022-07-23T03:10:50;99014.28;;;22.29;49.65
70343;BME280;57767;42.068;24.752;2022-07-23T03:11:52;99016.72;;;22.20;50.33
70343;BME280;57767;42.068;24.752;2022-07-23T03:12:54;99019.47;;;22.15;50.28
70343;BME280;57767;42.068;24.752;2022-07-23T03:13:55;98996.16;;;22.00;49.98
70343;BME280;57767;42.068;24.752;2022-07-23T03:14:57;99015.69;;;22.16;49.60
70343;BME280;57767;42.068;24.752;2022-07-23T03:15:59;99010.28;;;22.21;49.39
70343;BME280;57767;42.068;24.752;2022-07-23T03:17:03;99019.41;;;22.25;50.58
70343;BME280;57767;42.068;24.752;2022-07-23T03:18:04;99020.44;;;22.29;50.31
70343;BME280;57767;42.068;24.752;2022-07-23T03:19:06;99015.03;;;22.29;50.83
70343;BME280;57767;42.068;24.752;2022-07-23T03:20:09;99020.44;;;22.29;51.62
70343;BME280;57767;42.068;24.752;2022-07-23T03:21:11;99014.81;;;22.26;52.53
70343;BME280;57767;42.068;24.752;2022-07-23T03:22:12;99024.16;;;22.33;52.21
70343;BME280;57767;42.068;24.752;2022-07-23T03:23:15;99017.19;;;22.32;51.91
70343;BME280;57767;42.068;24.752;2022-07-23T03:24:17;99022.03;;;22.30;51.98
70343;BME280;57767;42.068;24.752;2022-07-23T03:25:19;99024.50;;;22.27;53.07
70343;BME280;57767;42.068;24.752;2022-07-23T03:26:21;99019.41;;;22.25;52.60
70343;BME280;57767;42.068;24.752;2022-07-23T03:27:28;99026.13;;;22.23;52.31
70343;BME280;57767;42.068;24.752;2022-07-23T03:28:31;99027.25;;;22.16;51.84
70343;BME280;57767;42.068;24.752;2022-07-23T03:29:33;99018.44;;;22.06;53.01
70343;BME280;57767;42.068;24.752;2022-07-23T03:30:34;99026.75;;;22.09;52.89
70343;BME280;57767;42.068;24.752;2022-07-23T03:31:36;99027.00;;;22.13;52.40
70343;BME280;57767;42.068;24.752;2022-07-23T03:32:38;99026.47;;;22.16;51.12
70343;BME280;57767;42.068;24.752;2022-07-23T03:33:40;99023.47;;;22.17;52.13
70343;BME280;57767;42.068;24.752;2022-07-23T03:34:42;99024.28;;;22.18;49.87
70343;BME280;57767;42.068;24.752;2022-07-23T03:35:45;99016.00;;;22.09;48.43
70343;BME280;57767;42.068;24.752;2022-07-23T03:36:48;99012.75;;;22.12;47.67
70343;BME280;57767;42.068;24.752;2022-07-23T03:37:49;99017.25;;;22.27;51.11
70343;BME280;57767;42.068;24.752;2022-07-23T03:38:52;99025.25;;;22.32;49.27
70343;BME280;57767;42.068;24.752;2022-07-23T03:39:54;99025.47;;;22.41;51.23
70343;BME280;57767;42.068;24.752;2022-07-23T03:40:56;99030.53;;;22.47;50.87
70343;BME280;57767;42.068;24.752;2022-07-23T03:41:57;99026.72;;;22.54;51.66
70343;BME280;57767;42.068;24.752;2022-07-23T03:42:59;99022.38;;;22.58;49.49
70343;BME280;57767;42.068;24.752;2022-07-23T03:44:01;99022.06;;;22.64;49.50
70343;BME280;57767;42.068;24.752;2022-07-23T03:45:04;99013.13;;;22.69;48.14
70343;BME280;57767;42.068;24.752;2022-07-23T03:46:05;99024.88;;;22.83;49.24
70343;BME280;57767;42.068;24.752;2022-07-23T03:47:07;99024.53;;;22.90;48.72
70343;BME280;57767;42.068;24.752;2022-07-23T03:48:09;99008.38;;;22.90;48.91
70343;BME280;57767;42.068;24.752;2022-07-23T03:49:12;99025.25;;;23.00;50.28
70343;BME280;57767;42.068;24.752;2022-07-23T03:50:14;99017.09;;;23.05;50.16
70343;BME280;57767;42.068;24.752;2022-07-23T03:51:16;99016.78;;;23.12;48.89
70343;BME280;57767;42.068;24.752;2022-07-23T03:52:17;99025.31;;;23.19;47.48
70343;BME280;57767;42.068;24.752;2022-07-23T03:53:19;99028.75;;;23.25;48.45
70343;BME280;57767;42.068;24.752;2022-07-23T03:54:21;99024.34;;;23.34;47.70
70343;BME280;57767;42.068;24.752;2022-07-23T03:55:23;99024.22;;;23.44;47.00
70343;BME280;57767;42.068;24.752;2022-07-23T03:56:25;99018.03;;;23.43;48.49
70343;BME280;57767;42.068;24.752;2022-07-23T03:57:27;99037.53;;;23.59;48.08
70343;BME280;57767;42.068;24.752;2022-07-23T03:58:29;99016.53;;;23.56;48.62
70343;BME280;57767;42.068;24.752;2022-07-23T03:59:31;99026.56;;;23.74;47.02
70343;BME280;57767;42.068;24.752;2022-07-23T04:00:33;99025.91;;;23.82;49.54
70343;BME280;57767;42.068;24.752;2022-07-23T04:01:34;99024.75;;;23.88;48.36
70343;BME280;57767;42.068;24.752;2022-07-23T04:02:37;99027.59;;;23.97;48.78
70343;BME280;57767;42.068;24.752;2022-07-23T04:03:39;99023.94;;;24.07;47.89
70343;BME280;57767;42.068;24.752;2022-07-23T04:04:41;99022.50;;;24.14;46.73
70343;BME280;57767;42.068;24.752;2022-07-23T04:05:43;99023.72;;;24.22;47.13
70343;BME280;57767;42.068;24.752;2022-07-23T04:06:44;99025.81;;;24.30;46.59
70343;BME280;57767;42.068;24.752;2022-07-23T04:07:46;99020.91;;;24.32;45.94
70343;BME280;57767;42.068;24.752;2022-07-23T04:08:48;99020.78;;;24.42;46.13
70343;BME280;57767;42.068;24.752;2022-07-23T04:09:50;99021.63;;;24.56;46.37
70343;BME280;57767;42.068;24.752;2022-07-23T04:10:52;99025.47;;;24.69;44.59
70343;BME280;57767;42.068;24.752;2022-07-23T04:11:54;99028.97;;;24.83;44.11
70343;BME280;57767;42.068;24.752;2022-07-23T04:12:55;99021.53;;;24.94;43.67
70343;BME280;57767;42.068;24.752;2022-07-23T04:13:58;99024.84;;;25.05;43.48
70343;BME280;57767;42.068;24.752;2022-07-23T04:15:00;99029.25;;;25.14;43.41
70343;BME280;57767;42.068;24.752;2022-07-23T04:16:02;99036.06;;;25.25;43.89
70343;BME280;57767;42.068;24.752;2022-07-23T04:17:05;99028.28;;;25.38;44.34
70343;BME280;57767;42.068;24.752;2022-07-23T04:18:07;99031.28;;;25.50;44.18
70343;BME280;57767;42.068;24.752;2022-07-23T04:19:09;99023.47;;;25.62;43.63
70343;BME280;57767;42.068;24.752;2022-07-23T04:20:11;99026.97;;;25.76;42.65
70343;BME280;57767;42.068;24.752;2022-07-23T04:21:13;99021.97;;;25.83;40.73
70343;BME280;57767;42.068;24.752;2022-07-23T04:22:14;99030.53;;;25.99;42.71
70343;BME280;57767;42.068;24.752;2022-07-23T04:23:16;99034.28;;;26.12;42.19
70343;BME280;57767;42.068;24.752;2022-07-23T04:24:20;99024.66;;;26.19;41.87
70343;BME280;57767;42.068;24.752;2022-07-23T04:25:22;99027.53;;;26.36;41.32
70343;BME280;57767;42.068;24.752;2022-07-23T04:26:24;99034.00;;;26.49;41.45
70343;BME280;57767;42.068;24.752;2022-07-23T04:27:26;99038.03;;;26.60;40.73
70343;BME280;57767;42.068;24.752;2022-07-23T04:28:28;99034.00;;;26.71;40.43
70343;BME280;57767;42.068;24.752;2022-07-23T04:29:30;99019.81;;;26.74;40.23
70343;BME280;57767;42.068;24.752;2022-07-23T04:30:32;99024.84;;;26.90;40.00
70343;BME280;57767;42.068;24.752;2022-07-23T04:31:33;99028.78;;;27.06;39.22
70343;BME280;57767;42.068;24.752;2022-07-23T04:32:38;99033.81;;;27.21;38.46
70343;BME280;57767;42.068;24.752;2022-07-23T04:33:39;99037.66;;;27.29;37.59
70343;BME280;57767;42.068;24.752;2022-07-23T04:34:41;99039.94;;;27.35;38.64
70343;BME280;57767;42.068;24.752;2022-07-23T04:35:43;99043.47;;;27.44;39.03
70343;BME280;57767;42.068;24.752;2022-07-23T04:36:45;99042.09;;;27.56;39.33
70343;BME280;57767;42.068;24.752;2022-07-23T04:37:47;99032.22;;;27.60;39.38
70343;BME280;57767;42.068;24.752;2022-07-23T04:38:48;99030.94;;;27.74;38.74
70343;BME280;57767;42.068;24.752;2022-07-23T04:40:01;99037.34;;;27.87;38.46
70343;BME280;57767;42.068;24.752;2022-07-23T04:41:03;99042.94;;;27.99;39.36
70343;BME280;57767;42.068;24.752;2022-07-23T04:42:05;99038.84;;;28.10;37.28
70343;BME280;57767;42.068;24.752;2022-07-23T04:43:07;99037.44;;;28.22;36.84
70343;BME280;57767;42.068;24.752;2022-07-23T04:44:09;99038.69;;;28.33;35.50
70343;BME280;57767;42.068;24.752;2022-07-23T04:45:10;99042.84;;;28.39;35.20
70343;BME280;57767;42.068;24.752;2022-07-23T04:46:14;99044.09;;;28.50;36.80
70343;BME280;57767;42.068;24.752;2022-07-23T04:47:17;99039.78;;;28.66;36.41
70343;BME280;57767;42.068;24.752;2022-07-23T04:48:19;99049.19;;;28.77;35.21
70343;BME280;57767;42.068;24.752;2022-07-23T04:49:21;99032.59;;;28.88;36.28
70343;BME280;57767;42.068;24.752;2022-07-23T04:50:23;99043.72;;;29.03;36.54
70343;BME280;57767;42.068;24.752;2022-07-23T04:51:25;99048.78;;;29.22;35.96
70343;BME280;57767;42.068;24.752;2022-07-23T04:52:27;99040.25;;;29.32;36.35
70343;BME280;57767;42.068;24.752;2022-07-23T04:53:29;99040.06;;;29.46;36.61
70343;BME280;57767;42.068;24.752;2022-07-23T04:54:31;99048.00;;;29.60;36.55
70343;BME280;57767;42.068;24.752;2022-07-23T04:55:32;99042.16;;;29.70;35.08
70343;BME280;57767;42.068;24.752;2022-07-23T04:56:34;99041.94;;;29.83;35.00
70343;BME280;57767;42.068;24.752;2022-07-23T04:57:36;99043.78;;;30.00;35.28
70343;BME280;57767;42.068;24.752;2022-07-23T04:58:38;99041.59;;;30.14;34.07
70343;BME280;57767;42.068;24.752;2022-07-23T04:59:39;99050.00;;;30.21;32.56
70343;BME280;57767;42.068;24.752;2022-07-23T05:00:41;99043.69;;;30.29;34.01
70343;BME280;57767;42.068;24.752;2022-07-23T05:01:43;99036.91;;;30.36;34.45
70343;BME280;57767;42.068;24.752;2022-07-23T05:02:45;99045.00;;;30.44;33.21
70343;BME280;57767;42.068;24.752;2022-07-23T05:03:46;99043.94;;;30.57;33.08
70343;BME280;57767;42.068;24.752;2022-07-23T05:04:52;99027.59;;;30.57;33.18
70343;BME280;57767;42.068;24.752;2022-07-23T05:05:54;99044.34;;;30.80;33.15
70343;BME280;57767;42.068;24.752;2022-07-23T05:06:56;99045.66;;;30.95;31.93
70343;BME280;57767;42.068;24.752;2022-07-23T05:07:57;99049.69;;;31.10;32.75
70343;BME280;57767;42.068;24.752;2022-07-23T05:08:59;99041.53;;;31.22;32.18
70343;BME280;57767;42.068;24.752;2022-07-23T05:10:01;99050.50;;;31.34;32.46
70343;BME280;57767;42.068;24.752;2022-07-23T05:11:06;99048.13;;;31.45;33.03
70343;BME280;57767;42.068;24.752;2022-07-23T05:12:08;99043.78;;;31.56;32.94
70343;BME280;57767;42.068;24.752;2022-07-23T05:13:10;99028.66;;;31.59;33.00
70343;BME280;57767;42.068;24.752;2022-07-23T05:14:11;99028.00;;;31.74;33.11
70343;BME280;57767;42.068;24.752;2022-07-23T05:15:14;99028.22;;;31.81;32.98
70343;BME280;57767;42.068;24.752;2022-07-23T05:16:15;99036.84;;;31.95;31.41
70343;BME280;57767;42.068;24.752;2022-07-23T05:17:17;99037.06;;;32.02;31.47
70343;BME280;57767;42.068;24.752;2022-07-23T05:18:19;99038.16;;;32.14;30.42
70343;BME280;57767;42.068;24.752;2022-07-23T05:19:21;99040.09;;;32.25;30.67
70343;BME280;57767;42.068;24.752;2022-07-23T05:20:25;99023.69;;;32.25;30.21
70343;BME280;57767;42.068;24.752;2022-07-23T05:21:27;99037.91;;;32.31;30.96
70343;BME280;57767;42.068;24.752;2022-07-23T05:22:29;99044.50;;;32.18;31.16
70343;BME280;57767;42.068;24.752;2022-07-23T05:23:31;99037.88;;;32.03;30.76
70343;BME280;57767;42.068;24.752;2022-07-23T05:24:32;99033.88;;;32.00;31.19
70343;BME280;57767;42.068;24.752;2022-07-23T05:25:34;99037.81;;;32.15;30.56